createdAt,value
2023-02-11T00:02:50.830Z,20.4
2023-02-11T00:08:35.146Z,20.1
2023-02-11T00:14:18.899Z,18.5
2023-02-11T00:20:02.738Z,21.6
2023-02-11T00:25:47.708Z,18.4
2023-02-11T00:31:32.520Z,16.4
2023-02-11T00:37:16.459Z,17.2
2023-02-11T00:43:00.314Z,16.2
2023-02-11T00:48:44.060Z,18.2
2023-02-11T00:54:31.026Z,17.6
2023-02-11T01:00:16.130Z,16.8
2023-02-11T01:05:59.950Z,16.6
2023-02-11T01:11:43.639Z,15.9
2023-02-11T01:17:27.538Z,16.9
2023-02-11T01:23:11.287Z,15.6
2023-02-11T01:28:55.035Z,14.9
2023-02-11T01:34:38.780Z,14.9
2023-02-11T01:40:22.589Z,13.9
2023-02-11T01:46:22.602Z,14.8
2023-02-11T01:52:09.076Z,14.3
2023-02-11T01:57:55.082Z,14.5
2023-02-11T02:03:42.665Z,14.8
2023-02-11T02:09:29.303Z,12.1
2023-02-11T02:15:27.334Z,12.9
2023-02-11T02:21:30.382Z,11.4
2023-02-11T02:27:31.447Z,13.5
2023-02-11T02:33:26.988Z,12.9
2023-02-11T02:39:14.573Z,12.5
2023-02-11T02:44:58.552Z,13.4
2023-02-11T02:50:42.776Z,12.2
2023-02-11T02:56:31.111Z,12.7
2023-02-11T03:02:19.474Z,12.3
2023-02-11T03:08:06.607Z,13.5
2023-02-11T03:13:51.144Z,10.9
2023-02-11T03:19:38.259Z,13.4
2023-02-11T03:25:23.155Z,12.4
2023-02-11T03:31:13.349Z,11.2
2023-02-11T03:36:59.744Z,12.3
2023-02-11T03:42:44.966Z,10.8
2023-02-11T03:48:30.376Z,10.9
2023-02-11T03:54:18.967Z,10.8
2023-02-11T04:00:02.771Z,11.7
2023-02-11T04:05:46.560Z,11.8
2023-02-11T04:11:30.218Z,11.2
2023-02-11T04:17:14.369Z,11.5
2023-02-11T04:22:58.182Z,12.5
2023-02-11T04:28:42.039Z,10.5
2023-02-11T04:34:26.230Z,12.7
2023-02-11T04:40:10.736Z,11.7
2023-02-11T04:45:55.480Z,11.5
2023-02-11T04:51:39.170Z,12.2
2023-02-11T04:57:23.009Z,12.5
2023-02-11T05:03:06.674Z,12.6
2023-02-11T05:08:50.265Z,14.3
2023-02-11T05:14:34.096Z,12.3
2023-02-11T05:20:18.137Z,14.5
2023-02-11T05:26:01.923Z,13
2023-02-11T05:31:45.877Z,12.8
2023-02-11T05:37:29.555Z,14.3
2023-02-11T05:43:13.370Z,14.7
2023-02-11T05:48:57.059Z,14.8
2023-02-11T05:54:41.012Z,13.9
2023-02-11T06:00:25.109Z,13.8
2023-02-11T06:06:11.769Z,13.8
2023-02-11T06:11:55.778Z,12.1
2023-02-11T06:17:39.689Z,13.4
2023-02-11T06:23:24.119Z,14.2
2023-02-11T06:29:08.324Z,13.5
2023-02-11T06:34:52.185Z,13.4
2023-02-11T06:40:35.954Z,12.8
2023-02-11T06:46:19.992Z,12.7
2023-02-11T06:52:03.570Z,14
2023-02-11T06:57:47.358Z,12.4
2023-02-11T07:03:31.088Z,14.3
2023-02-11T07:09:15.103Z,14.4
2023-02-11T07:14:59.173Z,14.3
2023-02-11T07:20:43.583Z,13.2
2023-02-11T07:26:27.370Z,17
2023-02-11T07:32:11.505Z,14.3
2023-02-11T07:37:55.389Z,13.4
2023-02-11T07:43:39.842Z,14
2023-02-11T07:49:23.748Z,15.2
2023-02-11T07:55:07.936Z,16
2023-02-11T08:00:51.809Z,17.1
2023-02-11T08:06:36.970Z,16
2023-02-11T08:12:20.796Z,18.4
2023-02-11T08:18:03.560Z,16.9
2023-02-11T08:23:47.518Z,17.2
2023-02-11T08:29:32.112Z,17.2
2023-02-11T08:35:15.987Z,20.2
2023-02-11T08:41:01.887Z,18.6
2023-02-11T08:46:45.597Z,17.7
2023-02-11T08:52:29.451Z,17.3
2023-02-11T08:58:14.139Z,18.7
2023-02-11T09:03:58.048Z,19.6
2023-02-11T09:09:41.850Z,20.1
2023-02-11T09:15:25.817Z,19.2
2023-02-11T09:21:10.505Z,22.3
2023-02-11T09:26:54.608Z,21
2023-02-11T09:32:39.375Z,21.4
2023-02-11T09:38:23.224Z,21.3
2023-02-11T09:44:09.030Z,20.6
2023-02-11T09:49:55.179Z,21
2023-02-11T09:55:41.699Z,20.6
2023-02-11T10:01:31.901Z,22.1
2023-02-11T10:07:19.718Z,23.1
2023-02-11T10:13:10.921Z,22.9
2023-02-11T10:19:09.242Z,22.7
2023-02-11T10:24:56.427Z,23.6
2023-02-11T10:30:42.335Z,23.1
2023-02-11T10:36:30.906Z,23.3
2023-02-11T10:42:15.887Z,24.9
2023-02-11T10:47:59.510Z,23
2023-02-11T10:53:43.494Z,22.8
2023-02-11T10:59:29.928Z,23.4
2023-02-11T11:05:17.985Z,25.3
2023-02-11T11:11:09.258Z,24.8
2023-02-11T11:16:57.496Z,23.6
2023-02-11T11:22:41.348Z,25
2023-02-11T11:28:27.653Z,25.3
2023-02-11T11:34:16.818Z,22.3
2023-02-11T11:40:04.928Z,22.3
2023-02-11T11:45:59.510Z,22.9
2023-02-11T11:51:44.729Z,22.3
2023-02-11T11:57:29.593Z,24.1
2023-02-11T12:03:24.959Z,22.4
2023-02-11T12:09:13.443Z,21.8
2023-02-11T12:15:01.391Z,23.8
2023-02-11T12:20:51.366Z,26.2
2023-02-11T12:26:38.432Z,24.9
2023-02-11T12:32:27.425Z,26.8
2023-02-11T12:38:27.902Z,27.3
2023-02-11T12:44:13.486Z,26.2
2023-02-11T12:50:06.596Z,27.3
2023-02-11T12:55:54.004Z,27.7
2023-02-11T13:01:42.602Z,29.6
2023-02-11T13:07:30.866Z,28.8
2023-02-11T13:13:21.544Z,29
2023-02-11T13:19:10.759Z,30.3
2023-02-11T13:24:59.468Z,30.1
2023-02-11T13:30:44.566Z,32.3
2023-02-11T13:36:29.907Z,31.1
2023-02-11T13:42:17.882Z,31.4
2023-02-11T13:48:04.518Z,32.7
2023-02-11T13:53:52.920Z,34.8
2023-02-11T13:59:56.516Z,35.5
2023-02-11T14:05:40.360Z,32.3
2023-02-11T14:11:37.327Z,33.5
2023-02-11T14:17:30.152Z,35.6
2023-02-11T14:23:27.183Z,33
2023-02-11T14:29:18.084Z,34.6
2023-02-11T14:35:07.854Z,32.6
2023-02-11T14:40:57.535Z,38
2023-02-11T14:46:41.788Z,38.6
2023-02-11T14:52:29.009Z,36.3
2023-02-11T14:58:15.054Z,35
2023-02-11T15:03:59.127Z,34.8
2023-02-11T15:09:44.564Z,37.1
2023-02-11T15:15:28.542Z,36.9
2023-02-11T15:21:12.868Z,36.4
2023-02-11T15:27:03.476Z,40.6
2023-02-11T15:32:47.335Z,36.8
2023-02-11T15:38:33.982Z,38.4
2023-02-11T15:44:32.399Z,37.5
2023-02-11T15:50:27.359Z,38
2023-02-11T15:56:14.296Z,35.1
2023-02-11T16:02:00.742Z,34.4
2023-02-11T16:07:46.573Z,37.1
2023-02-11T16:13:30.352Z,34.5
2023-02-11T16:19:22.337Z,36.8
2023-02-11T16:25:07.667Z,37.1
2023-02-11T16:30:55.070Z,35.7
2023-02-11T16:36:39.699Z,35.4
2023-02-11T16:42:23.418Z,37.5
2023-02-11T16:48:08.337Z,35.7
2023-02-11T16:53:52.106Z,36.1
2023-02-11T16:59:34.859Z,37.1
2023-02-11T17:05:23.447Z,36.6
2023-02-11T17:11:28.097Z,38
2023-02-11T17:17:12.054Z,37.9
2023-02-11T17:22:55.964Z,37
2023-02-11T17:28:39.922Z,35.6
2023-02-11T17:34:24.862Z,34.8
2023-02-11T17:40:08.105Z,38.7
2023-02-11T17:45:53.654Z,37.2
2023-02-11T17:51:38.605Z,38.7
2023-02-11T17:57:22.586Z,43
2023-02-11T18:03:06.562Z,42
2023-02-11T18:08:50.521Z,39.1
2023-02-11T18:14:35.645Z,37.8
2023-02-11T18:20:19.696Z,37.5
2023-02-11T18:26:03.790Z,39.9
2023-02-11T18:31:48.683Z,45.9
2023-02-11T18:37:32.525Z,54
2023-02-11T18:43:16.319Z,50.6
2023-02-11T18:49:00.302Z,45.6
2023-02-11T18:54:44.964Z,48.1
2023-02-11T19:00:30.158Z,51
2023-02-11T19:06:21.078Z,52
2023-02-11T19:12:05.263Z,51.2
2023-02-11T19:17:49.110Z,51.4
2023-02-11T19:23:32.856Z,48.6
2023-02-11T19:29:17.766Z,50
2023-02-11T19:35:01.562Z,46.6
2023-02-11T19:40:45.297Z,45.6
2023-02-11T19:46:30.794Z,45.3
2023-02-11T19:52:14.613Z,49.4
2023-02-11T19:58:00.513Z,47.8
2023-02-11T20:03:45.364Z,51.6
2023-02-11T20:09:29.210Z,49.8
2023-02-11T20:15:14.149Z,47.6
2023-02-11T20:20:57.952Z,49.3
2023-02-11T20:26:41.535Z,49.8
2023-02-11T20:32:25.372Z,46.5
2023-02-11T20:38:09.034Z,49
2023-02-11T20:43:54.393Z,46.2
2023-02-11T20:49:38.173Z,47.4
2023-02-11T20:55:21.961Z,45.4
2023-02-11T21:01:13.187Z,47.2
2023-02-11T21:06:58.028Z,44.7
2023-02-11T21:12:41.707Z,44.3
2023-02-11T21:18:26.175Z,48.1
2023-02-11T21:24:11.086Z,45.5
2023-02-11T21:29:57.480Z,42.4
2023-02-11T21:35:42.469Z,48.3
2023-02-11T21:41:26.358Z,44.8
2023-02-11T21:47:10.334Z,45.2
2023-02-11T21:52:54.406Z,44.7
2023-02-11T21:58:38.240Z,44.7
2023-02-11T22:04:22.274Z,43.7
2023-02-11T22:10:06.465Z,46.3
2023-02-11T22:15:57.268Z,45
2023-02-11T22:21:41.432Z,44.9
2023-02-11T22:27:25.202Z,43.2
2023-02-11T22:33:10.675Z,43.7
2023-02-11T22:38:54.775Z,46.8
2023-02-11T22:44:39.239Z,43.2
2023-02-11T22:50:23.131Z,41.9
2023-02-11T22:56:13.300Z,41.3
2023-02-11T23:01:58.931Z,40.6
2023-02-11T23:07:42.690Z,44
2023-02-11T23:13:26.502Z,42.2
2023-02-11T23:19:11.125Z,43.2
2023-02-11T23:24:55.046Z,42.1
2023-02-11T23:30:39.877Z,41.8
2023-02-11T23:36:23.800Z,42.8
2023-02-11T23:42:07.799Z,41.5
2023-02-11T23:47:51.669Z,42.8
2023-02-11T23:53:35.344Z,41.3
2023-02-11T23:59:19.038Z,40.7
